Time;durP1;ratioP1;P1;durP2;ratioP2;P2;SDS_P1;SDS_P2;PMS_P1;PMS_P2;Temp;Humidity;BMP_temperature;BMP_pressure;BME280_temperature;BME280_humidity;BME280_pressure;Samples;Min_cycle;Max_cycle;Signal;HPM_P1;HPM_P2
2021/10/04 00:00:47;;;;;;;0.70;0.70;;;11.30;99.90;;;;;;5066793;28;20025;-71
2021/10/04 00:03:12;;;;;;;0.52;0.52;;;11.30;99.90;;;;;;5071419;28;20040;-71
2021/10/04 00:05:38;;;;;;;1.15;0.70;;;11.10;99.90;;;;;;5060925;28;20024;-71
2021/10/04 00:08:04;;;;;;;0.50;0.50;;;11.10;99.90;;;;;;5049756;28;20025;-72
2021/10/04 00:10:29;;;;;;;0.60;0.60;;;11.10;99.90;;;;;;5053514;28;20060;-71
2021/10/04 00:12:56;;;;;;;0.60;0.60;;;11.20;99.90;;;;;;5067373;28;20367;-71
2021/10/04 00:15:23;;;;;;;0.60;0.60;;;11.50;99.90;;;;;;5060770;28;20032;-71
2021/10/04 00:17:49;;;;;;;1.20;1.10;;;11.40;99.90;;;;;;5070897;28;20024;-71
2021/10/04 00:20:16;;;;;;;3.95;1.30;;;11.50;99.90;;;;;;5070991;28;20025;-71
2021/10/04 00:22:42;;;;;;;0.60;0.60;;;11.50;99.90;;;;;;5058853;28;20021;-71
2021/10/04 00:25:09;;;;;;;0.55;0.55;;;11.50;99.90;;;;;;5063321;28;20150;-71
2021/10/04 00:27:35;;;;;;;0.60;0.60;;;11.50;99.90;;;;;;5048146;28;20033;-71
2021/10/04 00:30:07;;;;;;;0.82;0.60;;;11.50;99.90;;;;;;5068721;28;20016;-71
2021/10/04 00:32:34;;;;;;;0.88;0.88;;;11.50;99.90;;;;;;5065100;28;20025;-71
2021/10/04 00:35:00;;;;;;;0.60;0.60;;;11.50;99.90;;;;;;5071972;28;20091;-71
2021/10/04 00:37:25;;;;;;;0.60;0.60;;;11.50;99.90;;;;;;5066728;28;20155;-71
2021/10/04 00:39:51;;;;;;;0.60;0.60;;;11.30;99.90;;;;;;5071181;28;20027;-73
2021/10/04 00:42:17;;;;;;;0.60;0.60;;;11.50;99.90;;;;;;5049058;28;20486;-71
2021/10/04 00:44:42;;;;;;;0.60;0.60;;;11.50;99.90;;;;;;5055543;28;20121;-72
2021/10/04 00:47:08;;;;;;;0.50;0.50;;;11.60;99.90;;;;;;5079219;28;20020;-71
2021/10/04 00:49:33;;;;;;;0.60;0.60;;;11.40;99.90;;;;;;5059756;28;20476;-72
2021/10/04 00:51:59;;;;;;;1.98;0.73;;;11.50;99.90;;;;;;5054073;28;20039;-71
2021/10/04 00:54:24;;;;;;;0.60;0.60;;;11.50;99.90;;;;;;5060184;28;20024;-71
2021/10/04 00:56:50;;;;;;;0.50;0.50;;;11.40;99.90;;;;;;5064914;28;20047;-71
2021/10/04 00:59:17;;;;;;;1.40;0.70;;;11.50;99.90;;;;;;5052979;28;20078;-72
2021/10/04 01:01:43;;;;;;;0.60;0.60;;;11.60;99.90;;;;;;5062687;28;20029;-72
2021/10/04 01:04:09;;;;;;;0.70;0.70;;;11.40;99.90;;;;;;5069994;28;20495;-71
2021/10/04 01:06:34;;;;;;;0.70;0.70;;;11.50;99.90;;;;;;5065645;28;20099;-72
2021/10/04 01:09:00;;;;;;;0.60;0.60;;;11.80;99.90;;;;;;5059860;28;20052;-71
2021/10/04 01:11:26;;;;;;;0.60;0.60;;;11.20;99.90;;;;;;5059985;28;20032;-72
2021/10/04 01:13:52;;;;;;;0.70;0.70;;;11.20;99.90;;;;;;5063376;28;20529;-72
2021/10/04 01:16:18;;;;;;;0.50;0.50;;;11.20;99.90;;;;;;5050485;28;20055;-71
2021/10/04 01:18:43;;;;;;;0.60;0.60;;;11.20;99.90;;;;;;5070481;28;20032;-73
2021/10/04 01:21:09;;;;;;;0.60;0.60;;;11.30;99.90;;;;;;5061388;28;20035;-73
2021/10/04 01:23:35;;;;;;;0.60;0.60;;;11.40;99.90;;;;;;5062598;28;20371;-72
2021/10/04 01:26:02;;;;;;;0.70;0.70;;;11.00;99.90;;;;;;5069813;28;20074;-72
2021/10/04 01:28:30;;;;;;;0.60;0.60;;;11.20;99.90;;;;;;5061699;28;20526;-72
2021/10/04 01:30:56;;;;;;;1.35;1.10;;;11.20;99.90;;;;;;5061472;28;20126;-71
2021/10/04 01:33:22;;;;;;;0.60;0.60;;;11.20;99.90;;;;;;5065938;28;20055;-71
2021/10/04 01:35:48;;;;;;;0.60;0.60;;;11.80;99.90;;;;;;5069044;28;20032;-71
2021/10/04 01:38:14;;;;;;;0.60;0.60;;;11.20;99.90;;;;;;5066961;28;20373;-72
2021/10/04 01:40:43;;;;;;;0.60;0.60;;;11.20;99.90;;;;;;5051780;28;20039;-71
2021/10/04 01:43:12;;;;;;;0.60;0.60;;;11.30;99.90;;;;;;5059900;28;20672;-71
2021/10/04 01:45:38;;;;;;;0.70;0.70;;;11.30;99.90;;;;;;5056123;28;20444;-72
2021/10/04 01:48:04;;;;;;;1.10;0.68;;;11.30;99.90;;;;;;5062420;28;20027;-71
2021/10/04 01:50:32;;;;;;;0.77;0.77;;;11.20;99.90;;;;;;5060690;28;20028;-72
2021/10/04 01:52:58;;;;;;;0.60;0.60;;;11.70;99.90;;;;;;5067850;28;20045;-73
2021/10/04 01:55:23;;;;;;;0.68;0.63;;;11.20;99.90;;;;;;5047477;28;20032;-70
2021/10/04 01:57:50;;;;;;;2.17;1.00;;;11.20;99.90;;;;;;5060113;28;20036;-72
2021/10/04 02:00:18;;;;;;;0.65;0.65;;;11.60;99.90;;;;;;5068073;28;20048;-72
2021/10/04 02:02:46;;;;;;;0.70;0.70;;;11.40;99.90;;;;;;5057548;28;20099;-71
2021/10/04 02:05:13;;;;;;;0.70;0.70;;;11.40;99.90;;;;;;5063866;28;20048;-71
2021/10/04 02:07:39;;;;;;;0.60;0.60;;;11.40;99.90;;;;;;5073100;28;20020;-71
2021/10/04 02:10:11;;;;;;;1.05;0.88;;;10.90;99.90;;;;;;5067757;28;20031;-73
2021/10/04 02:12:38;;;;;;;0.60;0.60;;;11.10;99.90;;;;;;5066231;28;20031;-71
2021/10/04 02:15:05;;;;;;;0.68;0.68;;;11.50;99.90;;;;;;5065019;28;20052;-72
2021/10/04 02:17:33;;;;;;;0.60;0.60;;;11.00;99.90;;;;;;5066568;28;20021;-72
2021/10/04 02:19:58;;;;;;;0.95;0.85;;;11.00;99.90;;;;;;5061088;28;20102;-72
2021/10/04 02:22:24;;;;;;;0.95;0.70;;;10.90;99.90;;;;;;5066555;28;20434;-71
2021/10/04 02:24:50;;;;;;;0.95;0.73;;;10.90;99.90;;;;;;5048504;28;20856;-72
2021/10/04 02:27:16;;;;;;;0.60;0.60;;;10.90;99.90;;;;;;5069167;28;20028;-72
2021/10/04 02:29:41;;;;;;;1.52;1.02;;;10.90;99.90;;;;;;5048012;28;20027;-71
2021/10/04 02:32:07;;;;;;;0.70;0.70;;;10.60;99.90;;;;;;5068302;28;20020;-73
2021/10/04 02:34:34;;;;;;;0.57;0.57;;;10.80;99.90;;;;;;5063040;28;20021;-72
2021/10/04 02:37:00;;;;;;;0.60;0.60;;;10.60;99.90;;;;;;5066609;28;20031;-72
2021/10/04 02:39:26;;;;;;;0.80;0.80;;;10.80;99.90;;;;;;5063727;28;20100;-72
2021/10/04 02:41:52;;;;;;;0.93;0.70;;;10.80;99.90;;;;;;5057635;28;20036;-71
2021/10/04 02:44:17;;;;;;;0.60;0.60;;;10.80;99.90;;;;;;5068958;28;20463;-71
2021/10/04 02:46:43;;;;;;;0.63;0.63;;;10.80;99.90;;;;;;5049906;28;20016;-71
2021/10/04 02:49:09;;;;;;;0.60;0.60;;;10.70;99.90;;;;;;5069471;28;20040;-73
2021/10/04 02:51:35;;;;;;;1.30;0.60;;;10.70;99.90;;;;;;5063163;28;20052;-71
2021/10/04 02:54:01;;;;;;;0.50;0.50;;;10.80;99.90;;;;;;5067143;28;20048;-71
2021/10/04 02:56:26;;;;;;;0.60;0.60;;;10.80;99.90;;;;;;5073275;28;20490;-71
2021/10/04 02:58:52;;;;;;;0.70;0.70;;;10.80;99.90;;;;;;5068736;28;20476;-71
2021/10/04 03:01:18;;;;;;;0.77;0.70;;;10.80;99.90;;;;;;5067945;28;20431;-71
2021/10/04 03:03:44;;;;;;;0.60;0.60;;;11.00;99.90;;;;;;5068390;28;20039;-72
2021/10/04 03:06:09;;;;;;;1.08;0.85;;;10.80;99.90;;;;;;5062496;28;20055;-73
2021/10/04 03:08:35;;;;;;;0.60;0.60;;;11.10;99.90;;;;;;5062706;28;20041;-72
2021/10/04 03:11:01;;;;;;;0.50;0.50;;;10.90;99.90;;;;;;5070455;28;20059;-71
2021/10/04 03:13:27;;;;;;;0.60;0.60;;;10.90;99.90;;;;;;5060214;28;20104;-72
2021/10/04 03:15:53;;;;;;;0.60;0.60;;;10.90;99.90;;;;;;5053399;28;20028;-70
2021/10/04 03:18:19;;;;;;;0.95;0.77;;;10.90;99.90;;;;;;5045505;28;20346;-72
2021/10/04 03:20:45;;;;;;;0.55;0.55;;;10.90;99.90;;;;;;5068440;28;20059;-72
2021/10/04 03:23:10;;;;;;;0.50;0.50;;;10.90;99.90;;;;;;5054678;28;20028;-73
2021/10/04 03:25:36;;;;;;;0.73;0.63;;;11.00;99.90;;;;;;5073603;28;20035;-72
2021/10/04 03:28:03;;;;;;;1.00;0.80;;;10.90;99.90;;;;;;5052730;28;20111;-73
2021/10/04 03:30:29;;;;;;;0.60;0.60;;;11.00;99.90;;;;;;5066976;28;20014;-71
2021/10/04 03:32:54;;;;;;;0.60;0.60;;;10.90;99.90;;;;;;5071378;28;20027;-71
2021/10/04 03:35:20;;;;;;;0.60;0.60;;;11.00;99.90;;;;;;5065314;28;20056;-72
2021/10/04 03:37:46;;;;;;;0.60;0.60;;;11.10;99.90;;;;;;5069477;28;20035;-71
2021/10/04 03:40:12;;;;;;;1.75;0.80;;;11.10;99.90;;;;;;5048522;28;20029;-72
2021/10/04 03:42:39;;;;;;;0.75;0.75;;;11.10;99.90;;;;;;5069456;28;20502;-71
2021/10/04 03:45:05;;;;;;;0.60;0.60;;;11.10;99.90;;;;;;5083226;28;20028;-71
2021/10/04 03:47:31;;;;;;;0.60;0.60;;;11.20;99.90;;;;;;5062392;28;20028;-72
2021/10/04 03:49:57;;;;;;;0.60;0.60;;;11.20;99.90;;;;;;5074498;28;20357;-71
2021/10/04 03:52:22;;;;;;;0.60;0.60;;;11.20;99.90;;;;;;5052369;28;20033;-72
2021/10/04 03:54:48;;;;;;;0.75;0.60;;;11.20;99.90;;;;;;5069514;28;20030;-72
2021/10/04 03:57:14;;;;;;;0.70;0.70;;;11.40;99.90;;;;;;5050932;28;20028;-72
2021/10/04 03:59:39;;;;;;;0.85;0.63;;;11.20;99.90;;;;;;5066936;28;20099;-71
2021/10/04 04:02:05;;;;;;;0.60;0.60;;;11.20;99.90;;;;;;5063854;28;20022;-72
2021/10/04 04:04:31;;;;;;;0.73;0.60;;;11.20;99.90;;;;;;5067683;28;20062;-73
2021/10/04 04:06:56;;;;;;;0.60;0.60;;;11.30;99.90;;;;;;5052123;28;20017;-72
2021/10/04 04:09:22;;;;;;;0.77;0.77;;;11.30;99.90;;;;;;5048971;28;20020;-72
2021/10/04 04:11:47;;;;;;;0.77;0.60;;;11.30;99.90;;;;;;5056285;28;20024;-72
2021/10/04 04:14:13;;;;;;;0.60;0.60;;;11.40;99.90;;;;;;5055771;28;20099;-72
2021/10/04 04:16:38;;;;;;;0.50;0.50;;;11.40;99.90;;;;;;5055696;28;20468;-72
2021/10/04 04:19:04;;;;;;;0.60;0.60;;;11.40;99.90;;;;;;5054866;28;20442;-72
2021/10/04 04:21:30;;;;;;;0.60;0.60;;;11.40;99.90;;;;;;5042463;28;20059;-72
2021/10/04 04:23:55;;;;;;;1.38;0.90;;;11.40;99.90;;;;;;5060371;28;20078;-72
2021/10/04 04:26:21;;;;;;;0.77;0.77;;;11.40;99.90;;;;;;5044137;28;20056;-73
2021/10/04 04:28:47;;;;;;;0.55;0.55;;;11.40;99.90;;;;;;5058436;28;20169;-73
2021/10/04 04:31:12;;;;;;;0.60;0.60;;;11.40;99.90;;;;;;5060168;28;20025;-73
2021/10/04 04:33:38;;;;;;;0.60;0.60;;;11.40;99.90;;;;;;5057923;28;20032;-73
2021/10/04 04:36:05;;;;;;;0.63;0.63;;;11.30;99.90;;;;;;5055267;28;20037;-72
2021/10/04 04:38:31;;;;;;;0.57;0.57;;;11.40;99.90;;;;;;5055955;28;20027;-72
2021/10/04 04:40:57;;;;;;;0.60;0.60;;;11.30;99.90;;;;;;5053102;28;20554;-73
2021/10/04 04:43:22;;;;;;;1.42;1.10;;;11.50;99.90;;;;;;5056050;28;20032;-72
2021/10/04 04:45:48;;;;;;;1.55;1.00;;;11.20;99.90;;;;;;5053728;28;20086;-72
2021/10/04 04:48:14;;;;;;;0.60;0.60;;;11.40;99.90;;;;;;5061430;28;20024;-73
2021/10/04 04:50:40;;;;;;;0.60;0.60;;;11.50;99.90;;;;;;5061600;28;20577;-72
2021/10/04 04:53:06;;;;;;;0.50;0.50;;;11.40;99.90;;;;;;5049343;28;20017;-71
2021/10/04 04:55:31;;;;;;;0.50;0.50;;;11.30;99.90;;;;;;5063295;28;20021;-74
2021/10/04 04:57:57;;;;;;;0.60;0.60;;;11.30;99.90;;;;;;5054966;28;20031;-72
2021/10/04 05:00:22;;;;;;;0.93;0.68;;;11.20;99.90;;;;;;5061595;28;20077;-72
2021/10/04 05:02:48;;;;;;;1.65;1.15;;;11.30;99.90;;;;;;5061285;28;20173;-72
2021/10/04 05:05:16;;;;;;;0.57;0.57;;;11.40;99.90;;;;;;5061684;28;20051;-72
2021/10/04 05:07:42;;;;;;;0.50;0.50;;;11.50;99.90;;;;;;5040838;28;20016;-73
2021/10/04 05:10:08;;;;;;;0.60;0.60;;;11.30;99.90;;;;;;5057940;28;20035;-73
2021/10/04 05:12:34;;;;;;;1.08;0.90;;;11.30;99.90;;;;;;5052186;28;20099;-73
2021/10/04 05:15:00;;;;;;;0.60;0.60;;;11.40;99.90;;;;;;5054895;28;20035;-73
2021/10/04 05:17:26;;;;;;;0.52;0.52;;;11.30;99.90;;;;;;5061470;28;20021;-72
2021/10/04 05:19:51;;;;;;;0.65;0.60;;;11.30;99.90;;;;;;5067276;28;20020;-72
2021/10/04 05:22:17;;;;;;;0.95;0.77;;;11.40;99.90;;;;;;5065086;28;20033;-72
2021/10/04 05:24:43;;;;;;;0.57;0.57;;;11.40;99.90;;;;;;5037522;28;20029;-72
2021/10/04 05:27:09;;;;;;;0.70;0.70;;;11.40;99.90;;;;;;5052436;28;20120;-73
2021/10/04 05:29:35;;;;;;;0.60;0.60;;;11.30;99.90;;;;;;5053146;28;20468;-72
2021/10/04 05:32:00;;;;;;;0.60;0.60;;;11.40;99.90;;;;;;5061934;28;20021;-72
2021/10/04 05:34:26;;;;;;;0.82;0.60;;;11.50;99.90;;;;;;5055988;28;20380;-72
2021/10/04 05:36:52;;;;;;;0.52;0.52;;;11.50;99.90;;;;;;5045179;28;20082;-72
2021/10/04 05:39:18;;;;;;;0.50;0.50;;;11.50;99.90;;;;;;5059997;28;20102;-72
2021/10/04 05:41:44;;;;;;;0.50;0.50;;;11.60;99.90;;;;;;5063644;28;20025;-72
2021/10/04 05:44:10;;;;;;;0.68;0.68;;;11.30;99.90;;;;;;5050887;28;20032;-73
2021/10/04 05:46:35;;;;;;;0.50;0.50;;;11.70;99.90;;;;;;5064273;28;20394;-72
2021/10/04 05:49:01;;;;;;;0.60;0.60;;;11.60;99.90;;;;;;5060502;28;20383;-72
2021/10/04 05:51:27;;;;;;;0.60;0.60;;;11.40;99.90;;;;;;5069496;28;20028;-72
2021/10/04 05:53:53;;;;;;;1.10;0.90;;;11.80;99.90;;;;;;5064780;28;20047;-72
2021/10/04 05:56:18;;;;;;;0.70;0.70;;;11.60;99.90;;;;;;5064949;28;20527;-73
2021/10/04 05:58:44;;;;;;;0.52;0.52;;;11.60;99.90;;;;;;5063518;28;20036;-72
2021/10/04 06:01:10;;;;;;;1.08;0.80;;;11.70;99.90;;;;;;5063918;28;20071;-72
2021/10/04 06:03:35;;;;;;;0.65;0.65;;;11.70;99.90;;;;;;5057340;28;20129;-73
2021/10/04 06:06:01;;;;;;;0.60;0.60;;;11.70;99.90;;;;;;5066594;28;20029;-72
2021/10/04 06:08:26;;;;;;;1.58;1.48;;;11.80;99.90;;;;;;5057691;28;20029;-72
2021/10/04 06:10:52;;;;;;;1.00;0.80;;;12.10;99.90;;;;;;5060916;28;20467;-72
2021/10/04 06:13:18;;;;;;;1.05;0.55;;;12.10;99.90;;;;;;5063663;28;20024;-72
2021/10/04 06:15:45;;;;;;;0.60;0.60;;;11.90;99.90;;;;;;5056381;28;20047;-73
2021/10/04 06:18:12;;;;;;;0.73;0.60;;;12.00;99.90;;;;;;5069674;28;20391;-72
2021/10/04 06:20:42;;;;;;;0.60;0.60;;;11.90;99.90;;;;;;5050981;28;20028;-72
2021/10/04 06:23:08;;;;;;;0.50;0.50;;;12.10;99.90;;;;;;5066462;28;20025;-73
2021/10/04 06:25:34;;;;;;;0.60;0.60;;;11.90;99.90;;;;;;5063331;28;20377;-72
2021/10/04 06:28:00;;;;;;;1.00;1.00;;;12.00;99.90;;;;;;5060629;28;20035;-73
2021/10/04 06:30:25;;;;;;;0.70;0.70;;;12.20;99.90;;;;;;5069479;28;20372;-72
2021/10/04 06:32:52;;;;;;;0.60;0.60;;;12.20;99.90;;;;;;5063358;28;20123;-72
2021/10/04 06:35:18;;;;;;;0.60;0.60;;;12.10;99.90;;;;;;5059035;28;20096;-72
2021/10/04 06:37:44;;;;;;;0.70;0.60;;;11.90;99.90;;;;;;5069310;28;20025;-72
2021/10/04 06:40:10;;;;;;;0.60;0.60;;;12.20;99.90;;;;;;5044189;28;20035;-72
2021/10/04 06:42:36;;;;;;;0.85;0.65;;;12.20;99.90;;;;;;5054787;28;20025;-72
2021/10/04 06:45:02;;;;;;;0.70;0.70;;;12.10;99.90;;;;;;5054380;28;20036;-72
2021/10/04 06:47:28;;;;;;;0.70;0.70;;;12.20;99.90;;;;;;5044303;28;20025;-73
2021/10/04 06:49:54;;;;;;;0.77;0.75;;;12.20;99.90;;;;;;5066753;28;20075;-73
2021/10/04 06:52:19;;;;;;;1.27;0.70;;;12.30;99.90;;;;;;5069219;28;20033;-72
2021/10/04 06:54:45;;;;;;;0.73;0.70;;;12.20;99.90;;;;;;5054944;28;20033;-72
2021/10/04 06:57:11;;;;;;;0.60;0.60;;;12.30;99.90;;;;;;5052698;28;20116;-72
2021/10/04 06:59:36;;;;;;;0.60;0.60;;;12.20;99.90;;;;;;5060353;28;20037;-72
2021/10/04 07:02:03;;;;;;;0.65;0.65;;;12.90;99.90;;;;;;5055073;28;20447;-72
2021/10/04 07:04:29;;;;;;;0.82;0.70;;;12.30;99.90;;;;;;5057354;28;20089;-72
2021/10/04 07:06:55;;;;;;;0.68;0.68;;;12.30;99.90;;;;;;5063846;28;20025;-72
2021/10/04 07:09:21;;;;;;;0.60;0.60;;;12.40;99.90;;;;;;5051105;28;20136;-72
2021/10/04 07:11:46;;;;;;;0.80;0.60;;;12.40;99.90;;;;;;5064761;28;20099;-72
2021/10/04 07:14:12;;;;;;;0.63;0.63;;;12.60;99.90;;;;;;5066226;28;20048;-72
2021/10/04 07:16:38;;;;;;;0.50;0.50;;;12.60;99.90;;;;;;5050617;28;20082;-72
2021/10/04 07:19:03;;;;;;;0.70;0.70;;;12.70;99.90;;;;;;5059369;28;20388;-73
2021/10/04 07:21:31;;;;;;;0.50;0.50;;;12.80;99.90;;;;;;5070636;28;20021;-72
2021/10/04 07:23:56;;;;;;;1.42;0.70;;;13.30;99.90;;;;;;5075601;28;20028;-72
2021/10/04 07:26:23;;;;;;;0.57;0.57;;;13.00;99.90;;;;;;5055635;28;20033;-71
2021/10/04 07:28:49;;;;;;;1.42;0.88;;;13.00;99.90;;;;;;5066953;28;20391;-72
2021/10/04 07:31:15;;;;;;;0.60;0.60;;;13.00;99.90;;;;;;5059471;28;20021;-73
2021/10/04 07:33:41;;;;;;;0.65;0.60;;;13.10;99.90;;;;;;5066343;28;20020;-72
2021/10/04 07:36:06;;;;;;;1.23;0.63;;;13.40;99.90;;;;;;5048021;28;20069;-73
2021/10/04 07:38:34;;;;;;;0.60;0.60;;;13.10;99.90;;;;;;5065893;28;20036;-73
2021/10/04 07:41:00;;;;;;;0.63;0.63;;;13.10;99.90;;;;;;5067592;28;20063;-72
2021/10/04 07:43:25;;;;;;;0.50;0.50;;;13.20;99.90;;;;;;5063899;28;20066;-72
2021/10/04 07:45:51;;;;;;;0.50;0.50;;;13.30;99.90;;;;;;5056388;28;20020;-72
2021/10/04 07:48:16;;;;;;;0.60;0.57;;;13.40;99.90;;;;;;5069969;28;20028;-73
2021/10/04 07:50:45;;;;;;;1.10;0.60;;;13.00;99.90;;;;;;5072371;28;20104;-72
2021/10/04 07:53:12;;;;;;;0.50;0.50;;;13.20;99.90;;;;;;5050453;28;20028;-73
2021/10/04 07:55:41;;;;;;;0.70;0.70;;;13.20;99.90;;;;;;5054483;28;20112;-73
2021/10/04 07:58:07;;;;;;;0.50;0.50;;;13.30;99.90;;;;;;5068622;28;20021;-72
2021/10/04 08:00:33;;;;;;;0.60;0.60;;;13.40;99.90;;;;;;5069924;28;20150;-73
2021/10/04 08:02:59;;;;;;;1.58;0.82;;;13.60;99.90;;;;;;5063076;28;20077;-72
2021/10/04 08:05:24;;;;;;;0.50;0.50;;;13.60;99.90;;;;;;5059194;28;20092;-72
2021/10/04 08:07:50;;;;;;;0.50;0.50;;;13.50;99.90;;;;;;5052883;28;20020;-74
2021/10/04 08:10:16;;;;;;;1.00;0.60;;;13.50;99.90;;;;;;5064320;28;20100;-72
2021/10/04 08:12:42;;;;;;;0.50;0.50;;;13.50;99.90;;;;;;5062994;28;20025;-72
2021/10/04 08:15:08;;;;;;;0.50;0.50;;;13.60;99.90;;;;;;5062063;28;20049;-72
2021/10/04 08:17:34;;;;;;;0.50;0.50;;;13.50;99.90;;;;;;5070202;28;20108;-72
2021/10/04 08:20:00;;;;;;;1.20;0.85;;;13.60;99.90;;;;;;5071134;28;20021;-72
2021/10/04 08:22:27;;;;;;;1.85;0.80;;;13.70;99.90;;;;;;5074461;28;20490;-72
2021/10/04 08:24:54;;;;;;;0.65;0.65;;;13.80;99.90;;;;;;5074234;28;20021;-72
2021/10/04 08:27:19;;;;;;;0.85;0.70;;;14.00;99.90;;;;;;5067645;28;20828;-73
2021/10/04 08:29:46;;;;;;;1.25;1.00;;;14.20;99.90;;;;;;5075241;28;20082;-72
2021/10/04 08:32:12;;;;;;;0.60;0.60;;;14.40;99.90;;;;;;5044378;28;20379;-72
2021/10/04 08:34:38;;;;;;;0.50;0.50;;;14.50;99.90;;;;;;5050841;28;20033;-73
2021/10/04 08:37:03;;;;;;;1.10;0.80;;;14.70;99.90;;;;;;5064902;28;20141;-72
2021/10/04 08:39:30;;;;;;;0.50;0.50;;;14.70;99.90;;;;;;5070919;28;20032;-72
2021/10/04 08:41:56;;;;;;;0.50;0.50;;;14.70;99.90;;;;;;5059455;28;20019;-72
2021/10/04 08:44:23;;;;;;;0.60;0.60;;;14.90;99.90;;;;;;5070396;28;20460;-72
2021/10/04 08:46:49;;;;;;;1.15;0.60;;;15.00;99.90;;;;;;5066362;28;20029;-73
2021/10/04 08:49:18;;;;;;;0.77;0.77;;;14.90;99.90;;;;;;5069068;28;20027;-72
2021/10/04 08:51:46;;;;;;;0.60;0.60;;;14.70;99.90;;;;;;5047372;28;20139;-72
2021/10/04 08:54:12;;;;;;;0.43;0.43;;;14.60;99.90;;;;;;5056241;28;20914;-72
2021/10/04 08:56:39;;;;;;;1.27;0.73;;;14.60;99.90;;;;;;5065049;28;20063;-72
2021/10/04 08:59:05;;;;;;;0.60;0.60;;;14.70;99.90;;;;;;5064655;28;20021;-72
2021/10/04 09:01:30;;;;;;;0.60;0.60;;;14.80;99.90;;;;;;5040031;28;20484;-72
2021/10/04 09:04:01;;;;;;;0.60;0.60;;;15.00;99.90;;;;;;5064186;28;20025;-72
2021/10/04 09:06:36;;;;;;;0.50;0.50;;;15.10;99.90;;;;;;5062254;28;20033;-72
2021/10/04 09:09:05;;;;;;;1.17;0.70;;;15.20;99.90;;;;;;5055996;28;20020;-72
2021/10/04 09:11:36;;;;;;;0.52;0.50;;;15.30;99.90;;;;;;5070554;28;20020;-73
2021/10/04 09:14:15;;;;;;;0.75;0.52;;;15.50;99.90;;;;;;5069056;28;20072;-73
2021/10/04 09:16:50;;;;;;;0.60;0.60;;;15.60;99.90;;;;;;5066601;28;20024;-72
2021/10/04 09:19:17;;;;;;;0.50;0.50;;;15.60;99.90;;;;;;5050839;28;20025;-72
2021/10/04 09:22:08;;;;;;;0.60;0.60;;;15.40;99.90;;;;;;5066067;28;20115;-73
2021/10/04 09:24:36;;;;;;;0.70;0.57;;;15.20;99.90;;;;;;5040759;28;20078;-73
2021/10/04 09:27:02;;;;;;;1.13;0.80;;;15.30;99.90;;;;;;5061499;28;20511;-72
2021/10/04 09:29:46;;;;;;;0.60;0.60;;;15.50;99.90;;;;;;5069881;28;20257;-73
2021/10/04 09:32:12;;;;;;;0.50;0.50;;;15.30;99.90;;;;;;5065939;28;20032;-73
2021/10/04 09:34:38;;;;;;;0.52;0.50;;;15.30;99.90;;;;;;5046447;28;20108;-73
2021/10/04 09:37:03;;;;;;;1.13;0.60;;;15.50;99.90;;;;;;5064734;28;20028;-72
2021/10/04 09:39:31;;;;;;;0.50;0.50;;;15.60;99.90;;;;;;5060872;28;20027;-73
2021/10/04 09:42:08;;;;;;;1.75;0.90;;;15.40;99.90;;;;;;5042276;28;20079;-73
2021/10/04 09:45:01;;;;;;;0.52;0.52;;;15.40;99.90;;;;;;5067680;28;20376;-73
2021/10/04 09:47:34;;;;;;;0.50;0.50;;;15.50;99.90;;;;;;5061479;28;20043;-73
2021/10/04 09:50:11;;;;;;;0.52;0.52;;;15.40;99.90;;;;;;5066622;28;20053;-72
2021/10/04 09:52:38;;;;;;;3.38;1.08;;;15.40;99.90;;;;;;5063299;28;20021;-72
2021/10/04 09:55:30;;;;;;;0.50;0.50;;;15.30;99.90;;;;;;5049521;28;20024;-73
2021/10/04 09:58:10;;;;;;;0.50;0.50;;;15.30;99.90;;;;;;5062423;28;20111;-73
2021/10/04 10:00:44;;;;;;;0.60;0.60;;;15.80;99.90;;;;;;5068329;28;20095;-72
2021/10/04 10:03:12;;;;;;;0.77;0.57;;;15.90;99.90;;;;;;5052257;28;20380;-73
2021/10/04 10:05:41;;;;;;;1.10;0.80;;;16.20;99.90;;;;;;5056052;28;20016;-73
2021/10/04 10:08:07;;;;;;;0.60;0.60;;;16.20;99.90;;;;;;5066345;28;20468;-72
2021/10/04 10:10:33;;;;;;;0.50;0.50;;;16.40;99.90;;;;;;5056138;28;20019;-73
2021/10/04 10:12:59;;;;;;;0.52;0.40;;;17.20;99.90;;;;;;5061192;28;20044;-73
2021/10/04 10:15:28;;;;;;;0.77;0.40;;;17.70;99.90;;;;;;5056762;28;20527;-73
2021/10/04 10:18:12;;;;;;;0.77;0.60;;;16.50;99.90;;;;;;5066660;28;20021;-73
2021/10/04 10:20:39;;;;;;;0.50;0.50;;;16.50;99.90;;;;;;5067494;28;20548;-73
2021/10/04 10:23:08;;;;;;;0.50;0.50;;;16.10;99.90;;;;;;5069867;28;20032;-73
2021/10/04 10:25:43;;;;;;;0.60;0.60;;;15.90;99.90;;;;;;5051975;28;20031;-73
2021/10/04 10:28:29;;;;;;;1.35;1.23;;;16.20;99.90;;;;;;5066230;28;20039;-73
2021/10/04 10:30:54;;;;;;;1.25;0.90;;;16.30;99.90;;;;;;5050415;28;20035;-73
2021/10/04 10:33:42;;;;;;;0.70;0.70;;;16.50;99.90;;;;;;5062337;28;20029;-73
2021/10/04 10:36:08;;;;;;;1.55;0.60;;;17.90;99.90;;;;;;5049809;28;20033;-73
2021/10/04 10:38:55;;;;;;;0.88;0.50;;;17.90;99.90;;;;;;5054919;28;20036;-73
2021/10/04 10:41:21;;;;;;;0.57;0.57;;;17.20;99.90;;;;;;5059151;28;20083;-73
2021/10/04 10:44:06;;;;;;;0.50;0.50;;;17.10;99.90;;;;;;5054965;28;20024;-73
2021/10/04 10:46:58;;;;;;;0.63;0.50;;;17.90;99.90;;;;;;5063773;28;20032;-73
2021/10/04 10:49:58;;;;;;;0.50;0.50;;;17.60;99.90;;;;;;5062185;28;20041;-73
2021/10/04 10:52:29;;;;;;;0.40;0.40;;;17.70;99.90;;;;;;5077917;28;20459;-73
2021/10/04 10:54:56;;;;;;;0.68;0.68;;;17.50;99.90;;;;;;5054658;28;20568;-73
2021/10/04 10:57:43;;;;;;;0.50;0.50;;;17.90;99.90;;;;;;5057070;28;20550;-73
2021/10/04 11:00:24;;;;;;;0.50;0.50;;;18.80;99.90;;;;;;5047539;28;20076;-73
2021/10/04 11:03:05;;;;;;;0.40;0.40;;;19.20;99.90;;;;;;5064459;28;20029;-73
2021/10/04 11:05:43;;;;;;;0.43;0.40;;;18.70;99.90;;;;;;5055291;28;20021;-73
2021/10/04 11:08:14;;;;;;;1.33;0.73;;;18.90;99.90;;;;;;5054958;28;20554;-73
2021/10/04 11:11:05;;;;;;;0.50;0.50;;;19.60;99.90;;;;;;5063569;28;20024;-73
2021/10/04 11:13:37;;;;;;;2.65;0.50;;;20.30;99.90;;;;;;5050444;28;20515;-73
2021/10/04 11:16:05;;;;;;;0.40;0.40;;;20.40;99.90;;;;;;5068338;28;20024;-73
2021/10/04 11:18:43;;;;;;;0.60;0.50;;;19.90;99.90;;;;;;5067116;28;20025;-74
2021/10/04 11:21:13;;;;;;;0.55;0.40;;;19.40;99.90;;;;;;5066821;28;20032;-73
2021/10/04 11:23:46;;;;;;;0.50;0.50;;;19.00;99.90;;;;;;5056633;28;20051;-73
2021/10/04 11:26:14;;;;;;;4.75;0.60;;;18.80;99.90;;;;;;5061439;28;20025;-73
2021/10/04 11:28:46;;;;;;;0.50;0.50;;;19.00;99.90;;;;;;5074698;28;20021;-73
2021/10/04 11:31:26;;;;;;;0.57;0.50;;;18.90;99.90;;;;;;5060985;28;20028;-73
2021/10/04 11:33:56;;;;;;;;;;;19.20;99.90;;;;;;5066905;28;20329;-74
2021/10/04 11:36:23;;;;;;;;;;;19.90;99.90;;;;;;5039858;28;20299;-73
2021/10/04 11:38:50;;;;;;;0.50;0.50;;;19.20;99.90;;;;;;5057765;28;19961;-73
2021/10/04 11:41:43;;;;;;;0.40;0.40;;;19.20;99.90;;;;;;5064758;28;20059;-73
2021/10/04 11:44:12;;;;;;;1.25;0.60;;;20.20;99.90;;;;;;5057262;28;20036;-73
2021/10/04 11:46:41;;;;;;;3.00;1.10;;;20.80;99.90;;;;;;5055091;28;20071;-73
2021/10/04 11:49:19;;;;;;;2.70;0.70;;;20.10;99.90;;;;;;5070222;28;20024;-73
2021/10/04 11:51:49;;;;;;;0.60;0.50;;;19.90;99.90;;;;;;5043468;28;20263;-73
2021/10/04 11:54:34;;;;;;;3.22;1.35;;;20.90;98.50;;;;;;5060303;28;20139;-73
2021/10/04 11:57:01;;;;;;;0.75;0.50;;;20.30;98.40;;;;;;5061645;28;20025;-73
2021/10/04 11:59:27;;;;;;;0.55;0.50;;;21.50;97.40;;;;;;5072708;28;20487;-73
2021/10/04 12:01:54;;;;;;;2.25;0.80;;;21.80;97.30;;;;;;5053650;28;20029;-74
2021/10/04 12:04:21;;;;;;;0.80;0.50;;;22.20;95.90;;;;;;5068958;28;20023;-74
2021/10/04 12:06:47;;;;;;;0.50;0.50;;;21.70;94.60;;;;;;5046076;28;20033;-74
2021/10/04 12:09:21;;;;;;;2.05;0.80;;;22.20;95.60;;;;;;5053840;28;20021;-73
2021/10/04 12:11:50;;;;;;;0.75;0.50;;;20.90;96.20;;;;;;5064259;28;20356;-74
2021/10/04 12:14:18;;;;;;;0.35;0.35;;;21.10;96.30;;;;;;5063288;28;20094;-73
2021/10/04 12:16:44;;;;;;;0.70;0.50;;;21.80;95.30;;;;;;5047979;28;20025;-73
2021/10/04 12:19:10;;;;;;;0.38;0.38;;;22.00;95.90;;;;;;5070629;28;20166;-73
2021/10/04 12:21:38;;;;;;;0.40;0.40;;;21.50;95.20;;;;;;5066957;28;20054;-73
2021/10/04 12:24:18;;;;;;;0.40;0.40;;;21.90;94.80;;;;;;5074990;28;20021;-73
2021/10/04 12:27:07;;;;;;;0.52;0.50;;;22.40;94.10;;;;;;5060325;28;20017;-73
2021/10/04 12:29:44;;;;;;;0.63;0.45;;;21.80;94.00;;;;;;5072016;28;20029;-73
2021/10/04 12:32:21;;;;;;;0.50;0.50;;;22.80;93.30;;;;;;5068243;28;20048;-73
2021/10/04 12:35:08;;;;;;;0.40;0.40;;;22.30;92.00;;;;;;5063260;28;20027;-73
2021/10/04 12:37:57;;;;;;;0.50;0.50;;;21.40;93.40;;;;;;5065305;28;20376;-73
2021/10/04 12:40:34;;;;;;;0.60;0.57;;;21.60;94.20;;;;;;5040441;28;20043;-73
2021/10/04 12:43:02;;;;;;;0.88;0.60;;;21.80;93.40;;;;;;5052507;28;20036;-73
2021/10/04 12:45:28;;;;;;;0.47;0.47;;;21.20;94.60;;;;;;5064400;28;20028;-73
2021/10/04 12:48:14;;;;;;;1.17;0.68;;;21.80;93.80;;;;;;5050789;28;20029;-73
2021/10/04 12:50:42;;;;;;;0.85;0.50;;;23.10;92.30;;;;;;5066490;28;20013;-74
2021/10/04 12:53:13;;;;;;;3.88;0.80;;;22.40;92.10;;;;;;5060112;28;20017;-73